sensor_id;sensor_type;location;lat;lon;timestamp;pressure;altitude;pressure_sealevel;temperature
76898;BMP180;65856;52.178;21.176;2023-09-30T00:00:01;100743.00;;;16.68
76898;BMP180;65856;52.178;21.176;2023-09-30T00:02:27;100740.60;;;16.60
76898;BMP180;65856;52.178;21.176;2023-09-30T00:04:53;100738.80;;;16.60
76898;BMP180;65856;52.178;21.176;2023-09-30T00:07:19;100735.20;;;16.60
76898;BMP180;65856;52.178;21.176;2023-09-30T00:09:44;100736.80;;;16.60
76898;BMP180;65856;52.178;21.176;2023-09-30T00:12:10;100737.80;;;16.60
76898;BMP180;65856;52.178;21.176;2023-09-30T00:14:35;100740.00;;;16.62
76898;BMP180;65856;52.178;21.176;2023-09-30T00:17:03;100741.20;;;16.64
76898;BMP180;65856;52.178;21.176;2023-09-30T00:19:28;100740.80;;;16.68
76898;BMP180;65856;52.178;21.176;2023-09-30T00:21:54;100736.00;;;16.68
76898;BMP180;65856;52.178;21.176;2023-09-30T00:24:19;100729.00;;;16.70
76898;BMP180;65856;52.178;21.176;2023-09-30T00:26:45;100730.60;;;16.70
76898;BMP180;65856;52.178;21.176;2023-09-30T00:29:11;100728.60;;;16.70
76898;BMP180;65856;52.178;21.176;2023-09-30T00:31:37;100726.40;;;16.70
76898;BMP180;65856;52.178;21.176;2023-09-30T00:34:02;100720.00;;;16.70
76898;BMP180;65856;52.178;21.176;2023-09-30T00:36:28;100723.40;;;16.70
76898;BMP180;65856;52.178;21.176;2023-09-30T00:38:53;100722.20;;;16.70
76898;BMP180;65856;52.178;21.176;2023-09-30T00:41:19;100718.40;;;16.70
76898;BMP180;65856;52.178;21.176;2023-09-30T00:43:48;100720.60;;;16.70
76898;BMP180;65856;52.178;21.176;2023-09-30T00:46:26;100722.00;;;16.70
76898;BMP180;65856;52.178;21.176;2023-09-30T00:48:58;100719.00;;;16.70
76898;BMP180;65856;52.178;21.176;2023-09-30T00:51:25;100721.80;;;16.70
76898;BMP180;65856;52.178;21.176;2023-09-30T00:53:53;100719.00;;;16.70
76898;BMP180;65856;52.178;21.176;2023-09-30T00:56:25;100718.40;;;16.70
76898;BMP180;65856;52.178;21.176;2023-09-30T00:58:53;100717.00;;;16.70
76898;BMP180;65856;52.178;21.176;2023-09-30T01:01:20;100712.60;;;16.70
76898;BMP180;65856;52.178;21.176;2023-09-30T01:03:47;100711.80;;;16.70
76898;BMP180;65856;52.178;21.176;2023-09-30T01:06:13;100709.80;;;16.70
76898;BMP180;65856;52.178;21.176;2023-09-30T01:08:39;100711.40;;;16.70
76898;BMP180;65856;52.178;21.176;2023-09-30T01:11:06;100714.40;;;16.70
76898;BMP180;65856;52.178;21.176;2023-09-30T01:13:36;100719.40;;;16.70
76898;BMP180;65856;52.178;21.176;2023-09-30T01:16:07;100724.20;;;16.70
76898;BMP180;65856;52.178;21.176;2023-09-30T01:18:39;100720.40;;;16.70
76898;BMP180;65856;52.178;21.176;2023-09-30T01:21:07;100720.00;;;16.70
76898;BMP180;65856;52.178;21.176;2023-09-30T01:23:35;100720.40;;;16.70
76898;BMP180;65856;52.178;21.176;2023-09-30T01:26:03;100717.20;;;16.70
76898;BMP180;65856;52.178;21.176;2023-09-30T01:28:29;100727.00;;;16.70
76898;BMP180;65856;52.178;21.176;2023-09-30T01:30:56;100723.80;;;16.70
76898;BMP180;65856;52.178;21.176;2023-09-30T01:33:22;100717.20;;;16.70
76898;BMP180;65856;52.178;21.176;2023-09-30T01:35:48;100714.00;;;16.70
76898;BMP180;65856;52.178;21.176;2023-09-30T01:38:14;100712.20;;;16.70
76898;BMP180;65856;52.178;21.176;2023-09-30T01:40:40;100705.60;;;16.70
76898;BMP180;65856;52.178;21.176;2023-09-30T01:43:05;100705.80;;;16.70
76898;BMP180;65856;52.178;21.176;2023-09-30T01:45:31;100701.40;;;16.70
76898;BMP180;65856;52.178;21.176;2023-09-30T01:47:56;100699.40;;;16.70
76898;BMP180;65856;52.178;21.176;2023-09-30T01:50:22;100703.80;;;16.70
76898;BMP180;65856;52.178;21.176;2023-09-30T01:52:47;100704.20;;;16.70
76898;BMP180;65856;52.178;21.176;2023-09-30T01:55:13;100710.00;;;16.70
76898;BMP180;65856;52.178;21.176;2023-09-30T01:57:39;100708.60;;;16.70
76898;BMP180;65856;52.178;21.176;2023-09-30T02:00:05;100711.40;;;16.70
76898;BMP180;65856;52.178;21.176;2023-09-30T02:02:34;100701.80;;;16.70
76898;BMP180;65856;52.178;21.176;2023-09-30T02:05:00;100702.40;;;16.70
76898;BMP180;65856;52.178;21.176;2023-09-30T02:07:26;100696.60;;;16.78
76898;BMP180;65856;52.178;21.176;2023-09-30T02:09:52;100693.40;;;16.74
76898;BMP180;65856;52.178;21.176;2023-09-30T02:12:17;100698.80;;;16.78
76898;BMP180;65856;52.178;21.176;2023-09-30T02:14:43;100696.60;;;16.76
76898;BMP180;65856;52.178;21.176;2023-09-30T02:17:08;100695.20;;;16.78
76898;BMP180;65856;52.178;21.176;2023-09-30T02:19:34;100688.00;;;16.80
76898;BMP180;65856;52.178;21.176;2023-09-30T02:22:00;100689.00;;;16.80
76898;BMP180;65856;52.178;21.176;2023-09-30T02:24:25;100688.60;;;16.78
76898;BMP180;65856;52.178;21.176;2023-09-30T02:26:51;100689.20;;;16.72
76898;BMP180;65856;52.178;21.176;2023-09-30T02:29:16;100688.20;;;16.78
76898;BMP180;65856;52.178;21.176;2023-09-30T02:31:42;100687.60;;;16.76
76898;BMP180;65856;52.178;21.176;2023-09-30T02:34:08;100685.00;;;16.78
76898;BMP180;65856;52.178;21.176;2023-09-30T02:36:34;100689.20;;;16.80
76898;BMP180;65856;52.178;21.176;2023-09-30T02:39:04;100687.00;;;16.78
76898;BMP180;65856;52.178;21.176;2023-09-30T02:41:30;100682.20;;;16.80
76898;BMP180;65856;52.178;21.176;2023-09-30T02:43:56;100683.20;;;16.80
76898;BMP180;65856;52.178;21.176;2023-09-30T02:46:22;100686.80;;;16.80
76898;BMP180;65856;52.178;21.176;2023-09-30T02:48:47;100684.80;;;16.80
76898;BMP180;65856;52.178;21.176;2023-09-30T02:51:13;100686.20;;;16.80
76898;BMP180;65856;52.178;21.176;2023-09-30T02:53:38;100682.80;;;16.80
76898;BMP180;65856;52.178;21.176;2023-09-30T02:56:04;100682.20;;;16.80
76898;BMP180;65856;52.178;21.176;2023-09-30T02:58:30;100678.60;;;16.80
76898;BMP180;65856;52.178;21.176;2023-09-30T03:00:56;100677.40;;;16.80
76898;BMP180;65856;52.178;21.176;2023-09-30T03:03:22;100683.40;;;16.80
76898;BMP180;65856;52.178;21.176;2023-09-30T03:05:51;100685.20;;;16.80
76898;BMP180;65856;52.178;21.176;2023-09-30T03:08:17;100688.40;;;16.80
76898;BMP180;65856;52.178;21.176;2023-09-30T03:10:42;100679.60;;;16.80
76898;BMP180;65856;52.178;21.176;2023-09-30T03:13:08;100677.60;;;16.80
76898;BMP180;65856;52.178;21.176;2023-09-30T03:15:35;100675.40;;;16.72
76898;BMP180;65856;52.178;21.176;2023-09-30T03:18:01;100675.60;;;16.72
76898;BMP180;65856;52.178;21.176;2023-09-30T03:20:27;100674.20;;;16.70
76898;BMP180;65856;52.178;21.176;2023-09-30T03:22:52;100673.20;;;16.78
76898;BMP180;65856;52.178;21.176;2023-09-30T03:25:20;100667.40;;;16.80
76898;BMP180;65856;52.178;21.176;2023-09-30T03:27:47;100665.20;;;16.80
76898;BMP180;65856;52.178;21.176;2023-09-30T03:30:15;100668.80;;;16.80
76898;BMP180;65856;52.178;21.176;2023-09-30T03:32:44;100668.60;;;16.80
76898;BMP180;65856;52.178;21.176;2023-09-30T03:35:11;100669.00;;;16.80
76898;BMP180;65856;52.178;21.176;2023-09-30T03:37:46;100677.80;;;16.72
76898;BMP180;65856;52.178;21.176;2023-09-30T03:40:13;100679.80;;;16.80
76898;BMP180;65856;52.178;21.176;2023-09-30T03:42:43;100681.40;;;16.72
76898;BMP180;65856;52.178;21.176;2023-09-30T03:45:10;100678.60;;;16.80
76898;BMP180;65856;52.178;21.176;2023-09-30T03:47:37;100673.60;;;16.80
76898;BMP180;65856;52.178;21.176;2023-09-30T03:50:05;100672.80;;;16.80
76898;BMP180;65856;52.178;21.176;2023-09-30T03:52:34;100668.80;;;16.80
76898;BMP180;65856;52.178;21.176;2023-09-30T03:55:00;100670.00;;;16.78
76898;BMP180;65856;52.178;21.176;2023-09-30T03:57:33;100666.60;;;16.80
76898;BMP180;65856;52.178;21.176;2023-09-30T04:00:01;100667.20;;;16.70
76898;BMP180;65856;52.178;21.176;2023-09-30T04:02:31;100665.60;;;16.76
76898;BMP180;65856;52.178;21.176;2023-09-30T04:04:57;100663.40;;;16.78
76898;BMP180;65856;52.178;21.176;2023-09-30T04:07:23;100664.40;;;16.70
76898;BMP180;65856;52.178;21.176;2023-09-30T04:09:54;100664.60;;;16.70
76898;BMP180;65856;52.178;21.176;2023-09-30T04:12:21;100663.00;;;16.70
76898;BMP180;65856;52.178;21.176;2023-09-30T04:14:49;100662.20;;;16.70
76898;BMP180;65856;52.178;21.176;2023-09-30T04:17:15;100666.00;;;16.70
76898;BMP180;65856;52.178;21.176;2023-09-30T04:19:40;100666.60;;;16.70
76898;BMP180;65856;52.178;21.176;2023-09-30T04:22:06;100668.80;;;16.70
76898;BMP180;65856;52.178;21.176;2023-09-30T04:24:31;100670.00;;;16.70
76898;BMP180;65856;52.178;21.176;2023-09-30T04:26:57;100671.40;;;16.70
76898;BMP180;65856;52.178;21.176;2023-09-30T04:29:28;100670.80;;;16.70
76898;BMP180;65856;52.178;21.176;2023-09-30T04:31:55;100676.00;;;16.70
76898;BMP180;65856;52.178;21.176;2023-09-30T04:34:21;100674.40;;;16.70
76898;BMP180;65856;52.178;21.176;2023-09-30T04:36:47;100670.00;;;16.70
76898;BMP180;65856;52.178;21.176;2023-09-30T04:39:13;100673.00;;;16.70
76898;BMP180;65856;52.178;21.176;2023-09-30T04:41:40;100673.20;;;16.70
76898;BMP180;65856;52.178;21.176;2023-09-30T04:44:07;100667.60;;;16.70
76898;BMP180;65856;52.178;21.176;2023-09-30T04:46:36;100663.60;;;16.70
76898;BMP180;65856;52.178;21.176;2023-09-30T04:49:07;100665.20;;;16.70
76898;BMP180;65856;52.178;21.176;2023-09-30T04:51:33;100659.80;;;16.70
76898;BMP180;65856;52.178;21.176;2023-09-30T04:53:59;100656.80;;;16.70
76898;BMP180;65856;52.178;21.176;2023-09-30T04:56:25;100657.80;;;16.70
76898;BMP180;65856;52.178;21.176;2023-09-30T04:58:51;100657.60;;;16.70
76898;BMP180;65856;52.178;21.176;2023-09-30T05:01:16;100656.40;;;16.70
76898;BMP180;65856;52.178;21.176;2023-09-30T05:03:44;100657.60;;;16.70
76898;BMP180;65856;52.178;21.176;2023-09-30T05:06:13;100663.00;;;16.70
76898;BMP180;65856;52.178;21.176;2023-09-30T05:08:39;100663.80;;;16.70
76898;BMP180;65856;52.178;21.176;2023-09-30T05:11:04;100664.80;;;16.74
76898;BMP180;65856;52.178;21.176;2023-09-30T05:13:30;100660.60;;;16.80
76898;BMP180;65856;52.178;21.176;2023-09-30T05:15:55;100663.40;;;16.80
76898;BMP180;65856;52.178;21.176;2023-09-30T05:18:21;100663.20;;;16.80
76898;BMP180;65856;52.178;21.176;2023-09-30T05:20:47;100664.60;;;16.80
76898;BMP180;65856;52.178;21.176;2023-09-30T05:23:12;100668.00;;;16.80
76898;BMP180;65856;52.178;21.176;2023-09-30T05:25:39;100668.20;;;16.80
76898;BMP180;65856;52.178;21.176;2023-09-30T05:28:05;100670.20;;;16.80
76898;BMP180;65856;52.178;21.176;2023-09-30T05:30:33;100672.40;;;16.80
76898;BMP180;65856;52.178;21.176;2023-09-30T05:33:00;100680.20;;;16.80
76898;BMP180;65856;52.178;21.176;2023-09-30T05:35:26;100684.00;;;16.82
76898;BMP180;65856;52.178;21.176;2023-09-30T05:37:53;100677.80;;;16.90
76898;BMP180;65856;52.178;21.176;2023-09-30T05:40:21;100680.40;;;16.90
76898;BMP180;65856;52.178;21.176;2023-09-30T05:42:54;100680.60;;;16.90
76898;BMP180;65856;52.178;21.176;2023-09-30T05:45:23;100684.80;;;16.90
76898;BMP180;65856;52.178;21.176;2023-09-30T05:47:50;100689.80;;;16.90
76898;BMP180;65856;52.178;21.176;2023-09-30T05:50:18;100686.40;;;16.92
76898;BMP180;65856;52.178;21.176;2023-09-30T05:52:49;100693.20;;;16.92
76898;BMP180;65856;52.178;21.176;2023-09-30T05:55:17;100693.20;;;16.90
76898;BMP180;65856;52.178;21.176;2023-09-30T05:57:50;100692.20;;;16.90
76898;BMP180;65856;52.178;21.176;2023-09-30T06:00:16;100691.20;;;16.90
76898;BMP180;65856;52.178;21.176;2023-09-30T06:02:49;100693.20;;;16.90
76898;BMP180;65856;52.178;21.176;2023-09-30T06:05:17;100698.20;;;16.90
76898;BMP180;65856;52.178;21.176;2023-09-30T06:07:49;100694.40;;;16.90
76898;BMP180;65856;52.178;21.176;2023-09-30T06:10:15;100695.20;;;16.90
76898;BMP180;65856;52.178;21.176;2023-09-30T06:12:48;100701.00;;;16.90
76898;BMP180;65856;52.178;21.176;2023-09-30T06:15:16;100705.20;;;16.90
76898;BMP180;65856;52.178;21.176;2023-09-30T06:17:49;100711.80;;;16.94
76898;BMP180;65856;52.178;21.176;2023-09-30T06:20:18;100713.20;;;16.98
76898;BMP180;65856;52.178;21.176;2023-09-30T06:22:45;100720.80;;;17.00
76898;BMP180;65856;52.178;21.176;2023-09-30T06:25:12;100725.20;;;17.00
76898;BMP180;65856;52.178;21.176;2023-09-30T06:27:45;100731.60;;;17.00
76898;BMP180;65856;52.178;21.176;2023-09-30T06:30:15;100731.00;;;17.00
76898;BMP180;65856;52.178;21.176;2023-09-30T06:32:42;100732.20;;;17.00
76898;BMP180;65856;52.178;21.176;2023-09-30T06:35:09;100730.60;;;17.00
76898;BMP180;65856;52.178;21.176;2023-09-30T06:37:39;100729.20;;;17.00
76898;BMP180;65856;52.178;21.176;2023-09-30T06:40:08;100730.80;;;17.00
76898;BMP180;65856;52.178;21.176;2023-09-30T06:42:37;100730.40;;;17.02
76898;BMP180;65856;52.178;21.176;2023-09-30T06:45:06;100736.20;;;17.02
76898;BMP180;65856;52.178;21.176;2023-09-30T06:47:37;100737.00;;;17.02
76898;BMP180;65856;52.178;21.176;2023-09-30T06:50:12;100741.00;;;17.02
76898;BMP180;65856;52.178;21.176;2023-09-30T06:52:42;100748.80;;;17.06
76898;BMP180;65856;52.178;21.176;2023-09-30T06:55:11;100753.20;;;17.10
76898;BMP180;65856;52.178;21.176;2023-09-30T06:57:39;100752.80;;;17.10
76898;BMP180;65856;52.178;21.176;2023-09-30T07:00:13;100759.20;;;17.16
76898;BMP180;65856;52.178;21.176;2023-09-30T07:02:41;100759.40;;;17.20
76898;BMP180;65856;52.178;21.176;2023-09-30T07:05:14;100760.40;;;17.20
76898;BMP180;65856;52.178;21.176;2023-09-30T07:07:42;100757.20;;;17.28
76898;BMP180;65856;52.178;21.176;2023-09-30T07:10:11;100756.20;;;17.30
76898;BMP180;65856;52.178;21.176;2023-09-30T07:12:36;100757.60;;;17.30
76898;BMP180;65856;52.178;21.176;2023-09-30T07:15:03;100759.40;;;17.32
76898;BMP180;65856;52.178;21.176;2023-09-30T07:17:30;100766.20;;;17.40
76898;BMP180;65856;52.178;21.176;2023-09-30T07:19:56;100766.80;;;17.40
76898;BMP180;65856;52.178;21.176;2023-09-30T07:22:22;100774.60;;;17.40
76898;BMP180;65856;52.178;21.176;2023-09-30T07:24:48;100777.20;;;17.40
76898;BMP180;65856;52.178;21.176;2023-09-30T07:27:14;100775.80;;;17.40
76898;BMP180;65856;52.178;21.176;2023-09-30T07:29:39;100780.80;;;17.40
76898;BMP180;65856;52.178;21.176;2023-09-30T07:32:07;100775.60;;;17.44
76898;BMP180;65856;52.178;21.176;2023-09-30T07:34:33;100779.20;;;17.50
76898;BMP180;65856;52.178;21.176;2023-09-30T07:36:59;100782.00;;;17.50
76898;BMP180;65856;52.178;21.176;2023-09-30T07:39:24;100780.60;;;17.50
76898;BMP180;65856;52.178;21.176;2023-09-30T07:41:50;100783.00;;;17.50
76898;BMP180;65856;52.178;21.176;2023-09-30T07:44:15;100785.60;;;17.50
76898;BMP180;65856;52.178;21.176;2023-09-30T07:46:41;100784.40;;;17.50
76898;BMP180;65856;52.178;21.176;2023-09-30T07:49:09;100779.40;;;17.60
76898;BMP180;65856;52.178;21.176;2023-09-30T07:51:35;100782.00;;;17.60
76898;BMP180;65856;52.178;21.176;2023-09-30T07:54:03;100780.20;;;17.60
76898;BMP180;65856;52.178;21.176;2023-09-30T07:56:28;100783.20;;;17.60
76898;BMP180;65856;52.178;21.176;2023-09-30T07:58:54;100789.20;;;17.64
76898;BMP180;65856;52.178;21.176;2023-09-30T08:01:20;100790.20;;;17.70
76898;BMP180;65856;52.178;21.176;2023-09-30T08:03:46;100793.20;;;17.70
76898;BMP180;65856;52.178;21.176;2023-09-30T08:06:12;100788.00;;;17.80
76898;BMP180;65856;52.178;21.176;2023-09-30T08:08:38;100792.60;;;17.80
76898;BMP180;65856;52.178;21.176;2023-09-30T08:11:05;100789.60;;;17.90
76898;BMP180;65856;52.178;21.176;2023-09-30T08:13:32;100788.60;;;17.90
76898;BMP180;65856;52.178;21.176;2023-09-30T08:15:59;100792.60;;;17.96
76898;BMP180;65856;52.178;21.176;2023-09-30T08:18:25;100780.80;;;18.00
76898;BMP180;65856;52.178;21.176;2023-09-30T08:20:50;100784.80;;;18.02
76898;BMP180;65856;52.178;21.176;2023-09-30T08:23:16;100786.80;;;18.08
76898;BMP180;65856;52.178;21.176;2023-09-30T08:25:42;100785.60;;;18.10
76898;BMP180;65856;52.178;21.176;2023-09-30T08:28:07;100786.00;;;18.10
76898;BMP180;65856;52.178;21.176;2023-09-30T08:30:35;100784.80;;;18.20
76898;BMP180;65856;52.178;21.176;2023-09-30T08:33:02;100786.80;;;18.24
76898;BMP180;65856;52.178;21.176;2023-09-30T08:35:38;100788.80;;;18.30
76898;BMP180;65856;52.178;21.176;2023-09-30T08:38:03;100791.80;;;18.32
76898;BMP180;65856;52.178;21.176;2023-09-30T08:40:29;100791.60;;;18.40
76898;BMP180;65856;52.178;21.176;2023-09-30T08:42:55;100790.20;;;18.50
76898;BMP180;65856;52.178;21.176;2023-09-30T08:45:21;100784.60;;;18.50
76898;BMP180;65856;52.178;21.176;2023-09-30T08:47:46;100786.40;;;18.50
76898;BMP180;65856;52.178;21.176;2023-09-30T08:50:12;100786.40;;;18.58
76898;BMP180;65856;52.178;21.176;2023-09-30T08:52:42;100783.40;;;18.60
76898;BMP180;65856;52.178;21.176;2023-09-30T08:55:11;100787.80;;;18.60
76898;BMP180;65856;52.178;21.176;2023-09-30T08:57:39;100789.80;;;18.62
76898;BMP180;65856;52.178;21.176;2023-09-30T09:00:11;100791.80;;;18.70
76898;BMP180;65856;52.178;21.176;2023-09-30T09:02:39;100792.20;;;18.70
76898;BMP180;65856;52.178;21.176;2023-09-30T09:05:05;100791.80;;;18.70
76898;BMP180;65856;52.178;21.176;2023-09-30T09:07:32;100794.80;;;18.70
76898;BMP180;65856;52.178;21.176;2023-09-30T09:10:10;100792.60;;;18.70
76898;BMP180;65856;52.178;21.176;2023-09-30T09:12:39;100797.60;;;18.70
76898;BMP180;65856;52.178;21.176;2023-09-30T09:15:28;100797.40;;;18.70
76898;BMP180;65856;52.178;21.176;2023-09-30T09:17:56;100796.60;;;18.70
76898;BMP180;65856;52.178;21.176;2023-09-30T09:20:24;100795.60;;;18.70
76898;BMP180;65856;52.178;21.176;2023-09-30T09:22:54;100800.20;;;18.70
76898;BMP180;65856;52.178;21.176;2023-09-30T09:25:22;100800.60;;;18.70
76898;BMP180;65856;52.178;21.176;2023-09-30T09:27:50;100801.80;;;18.70
76898;BMP180;65856;52.178;21.176;2023-09-30T09:30:23;100804.00;;;18.70
76898;BMP180;65856;52.178;21.176;2023-09-30T09:33:04;100806.20;;;18.70
76898;BMP180;65856;52.178;21.176;2023-09-30T09:35:33;100803.40;;;18.70
76898;BMP180;65856;52.178;21.176;2023-09-30T09:38:05;100808.60;;;18.70
76898;BMP180;65856;52.178;21.176;2023-09-30T09:40:37;100808.40;;;18.60
76898;BMP180;65856;52.178;21.176;2023-09-30T09:43:04;100809.20;;;18.60
76898;BMP180;65856;52.178;21.176;2023-09-30T09:45:36;100813.80;;;18.60
76898;BMP180;65856;52.178;21.176;2023-09-30T09:48:04;100814.80;;;18.60
76898;BMP180;65856;52.178;21.176;2023-09-30T09:50:30;100813.40;;;18.60
76898;BMP180;65856;52.178;21.176;2023-09-30T09:52:58;100819.00;;;18.60
76898;BMP180;65856;52.178;21.176;2023-09-30T09:55:26;100821.00;;;18.60
76898;BMP180;65856;52.178;21.176;2023-09-30T09:57:53;100820.20;;;18.56
76898;BMP180;65856;52.178;21.176;2023-09-30T10:00:25;100824.40;;;18.54
76898;BMP180;65856;52.178;21.176;2023-09-30T10:02:52;100820.80;;;18.50
76898;BMP180;65856;52.178;21.176;2023-09-30T10:05:20;100818.20;;;18.50
76898;BMP180;65856;52.178;21.176;2023-09-30T10:07:59;100824.60;;;18.50
76898;BMP180;65856;52.178;21.176;2023-09-30T10:10:28;100830.40;;;18.50
76898;BMP180;65856;52.178;21.176;2023-09-30T10:12:54;100834.80;;;18.50
76898;BMP180;65856;52.178;21.176;2023-09-30T10:17:57;100846.80;;;18.50
76898;BMP180;65856;52.178;21.176;2023-09-30T10:20:31;100848.80;;;18.40
76898;BMP180;65856;52.178;21.176;2023-09-30T10:23:28;100851.00;;;18.40
76898;BMP180;65856;52.178;21.176;2023-09-30T10:28:40;100853.60;;;18.40
76898;BMP180;65856;52.178;21.176;2023-09-30T10:31:20;100855.40;;;18.40
76898;BMP180;65856;52.178;21.176;2023-09-30T10:36:37;100861.40;;;18.40
76898;BMP180;65856;52.178;21.176;2023-09-30T10:39:05;100864.40;;;18.40
76898;BMP180;65856;52.178;21.176;2023-09-30T10:46:52;100873.80;;;18.36
76898;BMP180;65856;52.178;21.176;2023-09-30T10:51:57;100881.80;;;18.30
76898;BMP180;65856;52.178;21.176;2023-09-30T10:54:30;100888.60;;;18.30
76898;BMP180;65856;52.178;21.176;2023-09-30T10:56:59;100896.80;;;18.22
76898;BMP180;65856;52.178;21.176;2023-09-30T10:59:28;100902.40;;;18.20
76898;BMP180;65856;52.178;21.176;2023-09-30T11:02:00;100904.80;;;18.18
76898;BMP180;65856;52.178;21.176;2023-09-30T11:04:26;100903.80;;;18.10
76898;BMP180;65856;52.178;21.176;2023-09-30T11:06:54;100904.80;;;18.10
76898;BMP180;65856;52.178;21.176;2023-09-30T11:09:22;100906.80;;;18.10
76898;BMP180;65856;52.178;21.176;2023-09-30T11:11:51;100902.00;;;18.10
76898;BMP180;65856;52.178;21.176;2023-09-30T11:14:21;100914.00;;;18.10
76898;BMP180;65856;52.178;21.176;2023-09-30T11:16:53;100919.00;;;18.10
76898;BMP180;65856;52.178;21.176;2023-09-30T11:19:21;100921.80;;;18.02
76898;BMP180;65856;52.178;21.176;2023-09-30T11:21:53;100928.40;;;18.00
76898;BMP180;65856;52.178;21.176;2023-09-30T11:24:23;100934.40;;;17.96
76898;BMP180;65856;52.178;21.176;2023-09-30T11:26:53;100937.80;;;17.90
76898;BMP180;65856;52.178;21.176;2023-09-30T11:29:19;100942.60;;;17.90
76898;BMP180;65856;52.178;21.176;2023-09-30T11:31:48;100948.40;;;17.90
76898;BMP180;65856;52.178;21.176;2023-09-30T11:34:17;100952.80;;;17.80
76898;BMP180;65856;52.178;21.176;2023-09-30T11:36:50;100951.60;;;17.70
76898;BMP180;65856;52.178;21.176;2023-09-30T11:39:28;100952.20;;;17.70
76898;BMP180;65856;52.178;21.176;2023-09-30T11:41:55;100951.00;;;17.70
76898;BMP180;65856;52.178;21.176;2023-09-30T11:44:26;100950.80;;;17.60
76898;BMP180;65856;52.178;21.176;2023-09-30T11:46:58;100949.40;;;17.60
76898;BMP180;65856;52.178;21.176;2023-09-30T11:49:29;100946.20;;;17.60
76898;BMP180;65856;52.178;21.176;2023-09-30T11:52:08;100951.80;;;17.60
76898;BMP180;65856;52.178;21.176;2023-09-30T11:54:41;100950.40;;;17.60
76898;BMP180;65856;52.178;21.176;2023-09-30T11:57:11;100954.20;;;17.60
76898;BMP180;65856;52.178;21.176;2023-09-30T11:59:42;100956.80;;;17.56
76898;BMP180;65856;52.178;21.176;2023-09-30T12:02:09;100958.40;;;17.54
76898;BMP180;65856;52.178;21.176;2023-09-30T12:04:36;100962.00;;;17.52
76898;BMP180;65856;52.178;21.176;2023-09-30T12:07:03;100963.20;;;17.50
76898;BMP180;65856;52.178;21.176;2023-09-30T12:09:29;100967.60;;;17.50
76898;BMP180;65856;52.178;21.176;2023-09-30T12:11:56;100969.40;;;17.50
76898;BMP180;65856;52.178;21.176;2023-09-30T12:14:24;100964.00;;;17.50
76898;BMP180;65856;52.178;21.176;2023-09-30T12:16:50;100956.20;;;17.50
76898;BMP180;65856;52.178;21.176;2023-09-30T12:19:19;100950.20;;;17.58
76898;BMP180;65856;52.178;21.176;2023-09-30T12:21:46;100950.20;;;17.60
76898;BMP180;65856;52.178;21.176;2023-09-30T12:24:15;100959.00;;;17.70
76898;BMP180;65856;52.178;21.176;2023-09-30T12:26:48;100959.40;;;17.70
76898;BMP180;65856;52.178;21.176;2023-09-30T12:29:19;100963.00;;;17.70
76898;BMP180;65856;52.178;21.176;2023-09-30T12:31:49;100971.20;;;17.74
76898;BMP180;65856;52.178;21.176;2023-09-30T12:34:16;100973.80;;;17.70
76898;BMP180;65856;52.178;21.176;2023-09-30T12:36:43;100971.40;;;17.70
76898;BMP180;65856;52.178;21.176;2023-09-30T12:39:10;100974.60;;;17.70
76898;BMP180;65856;52.178;21.176;2023-09-30T12:41:41;100973.80;;;17.70
76898;BMP180;65856;52.178;21.176;2023-09-30T12:44:08;100974.20;;;17.70
76898;BMP180;65856;52.178;21.176;2023-09-30T12:46:35;100976.00;;;17.70
76898;BMP180;65856;52.178;21.176;2023-09-30T12:49:06;100978.60;;;17.60
76898;BMP180;65856;52.178;21.176;2023-09-30T12:51:33;100973.80;;;17.64
76898;BMP180;65856;52.178;21.176;2023-09-30T12:54:00;100970.80;;;17.70
76898;BMP180;65856;52.178;21.176;2023-09-30T12:56:26;100967.40;;;17.70
76898;BMP180;65856;52.178;21.176;2023-09-30T12:58:55;100966.20;;;17.80
76898;BMP180;65856;52.178;21.176;2023-09-30T13:01:20;100965.80;;;17.80
76898;BMP180;65856;52.178;21.176;2023-09-30T13:03:48;100969.40;;;17.90
76898;BMP180;65856;52.178;21.176;2023-09-30T13:06:14;100962.20;;;18.00
76898;BMP180;65856;52.178;21.176;2023-09-30T13:08:43;100966.80;;;18.10
76898;BMP180;65856;52.178;21.176;2023-09-30T13:11:10;100970.60;;;18.10
76898;BMP180;65856;52.178;21.176;2023-09-30T13:13:37;100969.60;;;18.10
76898;BMP180;65856;52.178;21.176;2023-09-30T13:16:04;100967.20;;;18.10
76898;BMP180;65856;52.178;21.176;2023-09-30T13:18:36;100971.60;;;18.10
76898;BMP180;65856;52.178;21.176;2023-09-30T13:21:02;100970.80;;;18.16
76898;BMP180;65856;52.178;21.176;2023-09-30T13:23:31;100966.40;;;18.20
76898;BMP180;65856;52.178;21.176;2023-09-30T13:25:57;100967.00;;;18.20
76898;BMP180;65856;52.178;21.176;2023-09-30T13:28:22;100967.00;;;18.30
76898;BMP180;65856;52.178;21.176;2023-09-30T13:30:48;100968.40;;;18.30
76898;BMP180;65856;52.178;21.176;2023-09-30T13:33:13;100975.80;;;18.40
76898;BMP180;65856;52.178;21.176;2023-09-30T13:35:39;100965.60;;;18.48
76898;BMP180;65856;52.178;21.176;2023-09-30T13:38:04;100962.20;;;18.50
76898;BMP180;65856;52.178;21.176;2023-09-30T13:40:30;100957.20;;;18.50
76898;BMP180;65856;52.178;21.176;2023-09-30T13:42:56;100957.60;;;18.50
76898;BMP180;65856;52.178;21.176;2023-09-30T13:45:25;100951.60;;;18.60
76898;BMP180;65856;52.178;21.176;2023-09-30T13:47:53;100948.40;;;18.60
76898;BMP180;65856;52.178;21.176;2023-09-30T13:50:19;100945.60;;;18.70
76898;BMP180;65856;52.178;21.176;2023-09-30T13:52:44;100948.40;;;18.70
76898;BMP180;65856;52.178;21.176;2023-09-30T13:55:09;100950.40;;;18.70
76898;BMP180;65856;52.178;21.176;2023-09-30T13:57:35;100953.60;;;18.70
76898;BMP180;65856;52.178;21.176;2023-09-30T14:00:02;100953.60;;;18.70
76898;BMP180;65856;52.178;21.176;2023-09-30T14:02:32;100947.40;;;18.70